Terminal Aerodrome Forecast
Issued by NWS Chicago, IL

Home | Current Version | Previous Version | Text Only | Print | Product List | Glossary Off
Versions: 1 2 3 4 5 6 7 8 9 10 11 12 13 14 15 16 17 18 19 20 21 22 23 24 25 26 27 28 29 30 31 32 33 34

000
FTUS43 KLOT 291423 AAB
TAFRFD
TAF AMD
KRFD 291423Z 2914/3012 19020G30KT 6SM -RAPLSN SCT035 OVC070
      TEMPO 2914/2915 3SM -FZRA BKN035 OVC070
     FM291600 21023G34KT 6SM -SHRA SCT025 BKN050 OVC070
     FM291800 22020G32KT P6SM OVC030
      TEMPO 2922/2924 5SM -SHRA
     FM300000 29012G22KT P6SM BKN035
     FM300200 29010KT P6SM FEW040=

USA.gov is the U.S. government's official web portal to all federal, state and local government web resources and services.